sensor_id;sensor_type;location;lat;lon;timestamp;temperature;humidity
46400;DHT22;32104;50.838;4.388;2023-02-05T00:02:17;10.30;99.90
46400;DHT22;32104;50.838;4.388;2023-02-05T00:04:50;10.20;99.90
46400;DHT22;32104;50.838;4.388;2023-02-05T00:07:17;10.20;99.90
46400;DHT22;32104;50.838;4.388;2023-02-05T00:15:07;10.20;99.90
46400;DHT22;32104;50.838;4.388;2023-02-05T00:17:34;10.30;99.90
46400;DHT22;32104;50.838;4.388;2023-02-05T00:20:03;10.30;99.90
46400;DHT22;32104;50.838;4.388;2023-02-05T00:22:34;10.40;99.90
46400;DHT22;32104;50.838;4.388;2023-02-05T00:25:03;10.40;99.90
46400;DHT22;32104;50.838;4.388;2023-02-05T00:27:50;10.40;99.90
46400;DHT22;32104;50.838;4.388;2023-02-05T00:30:17;10.40;99.90
46400;DHT22;32104;50.838;4.388;2023-02-05T00:32:43;10.30;99.90
46400;DHT22;32104;50.838;4.388;2023-02-05T00:35:14;10.30;99.90
46400;DHT22;32104;50.838;4.388;2023-02-05T00:37:40;10.20;99.90
46400;DHT22;32104;50.838;4.388;2023-02-05T00:40:06;10.20;99.90
46400;DHT22;32104;50.838;4.388;2023-02-05T00:42:32;10.20;99.90
46400;DHT22;32104;50.838;4.388;2023-02-05T00:45:01;10.20;99.90
46400;DHT22;32104;50.838;4.388;2023-02-05T00:47:27;10.10;99.90
46400;DHT22;32104;50.838;4.388;2023-02-05T00:49:53;10.30;99.90
46400;DHT22;32104;50.838;4.388;2023-02-05T00:52:19;10.30;99.90
46400;DHT22;32104;50.838;4.388;2023-02-05T00:54:54;10.30;99.90
46400;DHT22;32104;50.838;4.388;2023-02-05T00:57:20;10.30;99.90
46400;DHT22;32104;50.838;4.388;2023-02-05T00:59:53;10.30;99.90
46400;DHT22;32104;50.838;4.388;2023-02-05T01:02:31;10.20;99.90
46400;DHT22;32104;50.838;4.388;2023-02-05T01:04:57;10.30;99.90
46400;DHT22;32104;50.838;4.388;2023-02-05T01:07:26;10.40;99.90
46400;DHT22;32104;50.838;4.388;2023-02-05T01:09:55;10.30;99.90
46400;DHT22;32104;50.838;4.388;2023-02-05T01:12:26;10.40;99.90
46400;DHT22;32104;50.838;4.388;2023-02-05T01:14:52;10.20;99.90
46400;DHT22;32104;50.838;4.388;2023-02-05T01:17:19;10.10;99.90
46400;DHT22;32104;50.838;4.388;2023-02-05T01:19:45;10.10;99.90
46400;DHT22;32104;50.838;4.388;2023-02-05T01:22:12;10.20;99.90
46400;DHT22;32104;50.838;4.388;2023-02-05T01:24:44;10.30;99.90
46400;DHT22;32104;50.838;4.388;2023-02-05T01:27:11;10.20;99.90
46400;DHT22;32104;50.838;4.388;2023-02-05T01:29:37;10.30;99.90
46400;DHT22;32104;50.838;4.388;2023-02-05T01:32:05;10.30;99.90
46400;DHT22;32104;50.838;4.388;2023-02-05T01:34:36;10.30;99.90
46400;DHT22;32104;50.838;4.388;2023-02-05T01:37:02;10.20;99.90
46400;DHT22;32104;50.838;4.388;2023-02-05T01:39:31;10.30;99.90
46400;DHT22;32104;50.838;4.388;2023-02-05T01:41:57;10.30;99.90
46400;DHT22;32104;50.838;4.388;2023-02-05T01:44:23;10.30;99.90
46400;DHT22;32104;50.838;4.388;2023-02-05T01:46:52;10.20;99.90
46400;DHT22;32104;50.838;4.388;2023-02-05T01:49:27;10.20;99.90
46400;DHT22;32104;50.838;4.388;2023-02-05T01:51:58;10.20;99.90
46400;DHT22;32104;50.838;4.388;2023-02-05T01:54:29;10.20;99.90
46400;DHT22;32104;50.838;4.388;2023-02-05T01:57:01;10.10;99.90
46400;DHT22;32104;50.838;4.388;2023-02-05T01:59:30;10.00;99.90
46400;DHT22;32104;50.838;4.388;2023-02-05T02:02:01;9.90;99.90
46400;DHT22;32104;50.838;4.388;2023-02-05T02:04:52;9.90;99.90
46400;DHT22;32104;50.838;4.388;2023-02-05T02:07:23;9.90;99.90
46400;DHT22;32104;50.838;4.388;2023-02-05T02:09:50;10.00;99.90
46400;DHT22;32104;50.838;4.388;2023-02-05T02:12:22;10.00;99.90
46400;DHT22;32104;50.838;4.388;2023-02-05T02:14:53;10.00;99.90
46400;DHT22;32104;50.838;4.388;2023-02-05T02:17:22;10.00;99.90
46400;DHT22;32104;50.838;4.388;2023-02-05T02:25:43;9.90;99.90
46400;DHT22;32104;50.838;4.388;2023-02-05T02:31:05;9.90;99.90
46400;DHT22;32104;50.838;4.388;2023-02-05T02:34:00;9.90;99.90
46400;DHT22;32104;50.838;4.388;2023-02-05T02:36:39;10.00;99.90
46400;DHT22;32104;50.838;4.388;2023-02-05T02:39:25;10.00;99.90
46400;DHT22;32104;50.838;4.388;2023-02-05T02:42:34;9.80;99.90
46400;DHT22;32104;50.838;4.388;2023-02-05T02:45:06;9.70;99.90
46400;DHT22;32104;50.838;4.388;2023-02-05T02:47:54;9.70;99.90
46400;DHT22;32104;50.838;4.388;2023-02-05T02:53:25;9.70;99.90
46400;DHT22;32104;50.838;4.388;2023-02-05T02:55:52;9.80;99.90
46400;DHT22;32104;50.838;4.388;2023-02-05T02:58:27;9.90;99.90
46400;DHT22;32104;50.838;4.388;2023-02-05T03:00:58;9.80;99.90
46400;DHT22;32104;50.838;4.388;2023-02-05T03:03:31;10.00;99.90
46400;DHT22;32104;50.838;4.388;2023-02-05T03:05:57;9.90;99.90
46400;DHT22;32104;50.838;4.388;2023-02-05T03:08:33;9.90;99.90
46400;DHT22;32104;50.838;4.388;2023-02-05T03:11:11;9.90;99.90
46400;DHT22;32104;50.838;4.388;2023-02-05T03:13:37;9.90;99.90
46400;DHT22;32104;50.838;4.388;2023-02-05T03:16:04;9.80;99.90
46400;DHT22;32104;50.838;4.388;2023-02-05T03:18:33;9.50;99.90
46400;DHT22;32104;50.838;4.388;2023-02-05T03:21:04;9.30;99.90
46400;DHT22;32104;50.838;4.388;2023-02-05T03:23:38;9.40;99.90
46400;DHT22;32104;50.838;4.388;2023-02-05T03:26:04;9.40;99.90
46400;DHT22;32104;50.838;4.388;2023-02-05T03:28:36;9.40;99.90
46400;DHT22;32104;50.838;4.388;2023-02-05T03:31:22;9.60;99.90
46400;DHT22;32104;50.838;4.388;2023-02-05T03:37:11;9.50;99.90
46400;DHT22;32104;50.838;4.388;2023-02-05T03:39:50;9.50;99.90
46400;DHT22;32104;50.838;4.388;2023-02-05T03:48:12;9.40;99.90
46400;DHT22;32104;50.838;4.388;2023-02-05T03:59:12;9.50;99.90
46400;DHT22;32104;50.838;4.388;2023-02-05T04:01:41;9.40;99.90
46400;DHT22;32104;50.838;4.388;2023-02-05T04:04:08;9.40;99.90
46400;DHT22;32104;50.838;4.388;2023-02-05T04:06:34;9.40;99.90
46400;DHT22;32104;50.838;4.388;2023-02-05T04:09:02;9.50;99.90
46400;DHT22;32104;50.838;4.388;2023-02-05T04:11:28;9.50;99.90
46400;DHT22;32104;50.838;4.388;2023-02-05T04:13:56;9.50;99.90
46400;DHT22;32104;50.838;4.388;2023-02-05T04:16:21;9.50;99.90
46400;DHT22;32104;50.838;4.388;2023-02-05T04:18:47;9.50;99.90
46400;DHT22;32104;50.838;4.388;2023-02-05T04:21:13;9.50;99.90
46400;DHT22;32104;50.838;4.388;2023-02-05T04:23:39;9.30;99.90
46400;DHT22;32104;50.838;4.388;2023-02-05T04:26:06;9.40;99.90
46400;DHT22;32104;50.838;4.388;2023-02-05T04:28:32;9.50;99.90
46400;DHT22;32104;50.838;4.388;2023-02-05T04:30:58;9.40;99.90
46400;DHT22;32104;50.838;4.388;2023-02-05T04:33:35;9.40;99.90
46400;DHT22;32104;50.838;4.388;2023-02-05T04:36:04;9.40;99.90
46400;DHT22;32104;50.838;4.388;2023-02-05T04:38:30;9.30;99.90
46400;DHT22;32104;50.838;4.388;2023-02-05T04:40:57;9.40;99.90
46400;DHT22;32104;50.838;4.388;2023-02-05T04:43:24;9.30;99.90
46400;DHT22;32104;50.838;4.388;2023-02-05T04:45:50;9.30;99.90
46400;DHT22;32104;50.838;4.388;2023-02-05T04:48:16;9.40;99.90
46400;DHT22;32104;50.838;4.388;2023-02-05T04:50:42;9.30;99.90
46400;DHT22;32104;50.838;4.388;2023-02-05T04:53:08;9.30;99.90
46400;DHT22;32104;50.838;4.388;2023-02-05T04:55:34;9.20;99.90
46400;DHT22;32104;50.838;4.388;2023-02-05T04:58:00;9.00;99.90
46400;DHT22;32104;50.838;4.388;2023-02-05T05:00:28;8.90;99.90
46400;DHT22;32104;50.838;4.388;2023-02-05T05:02:55;8.80;99.90
46400;DHT22;32104;50.838;4.388;2023-02-05T05:05:21;8.80;99.90
46400;DHT22;32104;50.838;4.388;2023-02-05T05:07:47;9.00;99.90
46400;DHT22;32104;50.838;4.388;2023-02-05T05:10:13;8.90;99.90
46400;DHT22;32104;50.838;4.388;2023-02-05T05:12:39;9.00;99.90
46400;DHT22;32104;50.838;4.388;2023-02-05T05:15:06;8.90;99.90
46400;DHT22;32104;50.838;4.388;2023-02-05T05:17:33;8.80;99.90
46400;DHT22;32104;50.838;4.388;2023-02-05T05:19:59;8.90;99.90
46400;DHT22;32104;50.838;4.388;2023-02-05T05:22:25;8.80;99.90
46400;DHT22;32104;50.838;4.388;2023-02-05T05:24:52;8.80;99.90
46400;DHT22;32104;50.838;4.388;2023-02-05T05:27:18;8.60;99.90
46400;DHT22;32104;50.838;4.388;2023-02-05T05:29:44;8.70;99.90
46400;DHT22;32104;50.838;4.388;2023-02-05T05:32:12;8.70;99.90
46400;DHT22;32104;50.838;4.388;2023-02-05T05:34:38;8.40;99.90
46400;DHT22;32104;50.838;4.388;2023-02-05T05:37:03;8.40;99.90
46400;DHT22;32104;50.838;4.388;2023-02-05T05:41:57;8.40;99.90
46400;DHT22;32104;50.838;4.388;2023-02-05T05:44:44;8.40;99.90
46400;DHT22;32104;50.838;4.388;2023-02-05T05:47:14;8.40;99.90
46400;DHT22;32104;50.838;4.388;2023-02-05T05:49:40;8.50;99.90
46400;DHT22;32104;50.838;4.388;2023-02-05T05:52:06;8.60;99.90
46400;DHT22;32104;50.838;4.388;2023-02-05T05:54:34;8.60;99.90
46400;DHT22;32104;50.838;4.388;2023-02-05T05:57:00;8.60;99.90
46400;DHT22;32104;50.838;4.388;2023-02-05T05:59:29;8.60;99.90
46400;DHT22;32104;50.838;4.388;2023-02-05T06:01:55;8.50;99.90
46400;DHT22;32104;50.838;4.388;2023-02-05T06:04:21;8.40;99.90
46400;DHT22;32104;50.838;4.388;2023-02-05T06:06:47;8.40;99.90
46400;DHT22;32104;50.838;4.388;2023-02-05T06:09:12;8.50;99.90
46400;DHT22;32104;50.838;4.388;2023-02-05T06:11:38;8.30;99.90
46400;DHT22;32104;50.838;4.388;2023-02-05T06:14:04;8.40;99.90
46400;DHT22;32104;50.838;4.388;2023-02-05T06:16:30;8.40;99.90
46400;DHT22;32104;50.838;4.388;2023-02-05T06:19:02;8.50;99.90
46400;DHT22;32104;50.838;4.388;2023-02-05T06:21:27;8.50;99.90
46400;DHT22;32104;50.838;4.388;2023-02-05T06:23:54;8.30;99.90
46400;DHT22;32104;50.838;4.388;2023-02-05T06:26:20;8.20;99.90
46400;DHT22;32104;50.838;4.388;2023-02-05T06:28:52;8.10;99.90
46400;DHT22;32104;50.838;4.388;2023-02-05T06:31:22;8.10;99.90
46400;DHT22;32104;50.838;4.388;2023-02-05T06:33:48;8.00;99.90
46400;DHT22;32104;50.838;4.388;2023-02-05T06:36:13;8.00;99.90
46400;DHT22;32104;50.838;4.388;2023-02-05T06:38:39;7.90;99.90
46400;DHT22;32104;50.838;4.388;2023-02-05T06:41:05;8.00;99.90
46400;DHT22;32104;50.838;4.388;2023-02-05T06:43:31;7.80;99.90
46400;DHT22;32104;50.838;4.388;2023-02-05T06:45:57;7.70;99.90
46400;DHT22;32104;50.838;4.388;2023-02-05T06:48:23;7.70;99.90
46400;DHT22;32104;50.838;4.388;2023-02-05T06:50:48;7.70;99.90
46400;DHT22;32104;50.838;4.388;2023-02-05T06:53:14;7.50;99.90
46400;DHT22;32104;50.838;4.388;2023-02-05T06:55:40;7.40;99.90
46400;DHT22;32104;50.838;4.388;2023-02-05T06:58:06;7.40;99.90
46400;DHT22;32104;50.838;4.388;2023-02-05T07:00:33;7.30;99.90
46400;DHT22;32104;50.838;4.388;2023-02-05T07:02:58;7.30;99.90
46400;DHT22;32104;50.838;4.388;2023-02-05T07:05:24;7.20;99.90
46400;DHT22;32104;50.838;4.388;2023-02-05T07:07:50;7.20;99.90
46400;DHT22;32104;50.838;4.388;2023-02-05T07:10:16;7.20;99.90
46400;DHT22;32104;50.838;4.388;2023-02-05T07:12:45;7.20;99.90
46400;DHT22;32104;50.838;4.388;2023-02-05T07:15:14;7.30;99.90
46400;DHT22;32104;50.838;4.388;2023-02-05T07:17:40;7.30;99.90
46400;DHT22;32104;50.838;4.388;2023-02-05T07:20:06;7.30;99.90
46400;DHT22;32104;50.838;4.388;2023-02-05T07:22:32;7.30;99.90
46400;DHT22;32104;50.838;4.388;2023-02-05T07:24:58;7.30;99.90
46400;DHT22;32104;50.838;4.388;2023-02-05T07:27:25;7.30;99.90
46400;DHT22;32104;50.838;4.388;2023-02-05T07:29:56;7.30;99.90
46400;DHT22;32104;50.838;4.388;2023-02-05T07:32:22;7.20;99.90
46400;DHT22;32104;50.838;4.388;2023-02-05T07:34:48;7.30;99.90
46400;DHT22;32104;50.838;4.388;2023-02-05T07:37:14;7.30;99.90
46400;DHT22;32104;50.838;4.388;2023-02-05T07:39:40;7.30;99.90
46400;DHT22;32104;50.838;4.388;2023-02-05T07:42:08;7.40;99.90
46400;DHT22;32104;50.838;4.388;2023-02-05T07:44:34;7.30;99.90
46400;DHT22;32104;50.838;4.388;2023-02-05T07:47:00;7.40;99.90
46400;DHT22;32104;50.838;4.388;2023-02-05T07:49:26;7.30;99.90
46400;DHT22;32104;50.838;4.388;2023-02-05T07:51:54;7.30;99.90
46400;DHT22;32104;50.838;4.388;2023-02-05T07:54:19;7.40;99.90
46400;DHT22;32104;50.838;4.388;2023-02-05T07:56:45;7.40;99.90
46400;DHT22;32104;50.838;4.388;2023-02-05T07:59:14;7.40;99.90
46400;DHT22;32104;50.838;4.388;2023-02-05T08:01:41;7.50;99.90
46400;DHT22;32104;50.838;4.388;2023-02-05T08:04:07;7.50;99.90
46400;DHT22;32104;50.838;4.388;2023-02-05T08:06:33;7.40;99.90
46400;DHT22;32104;50.838;4.388;2023-02-05T08:08:59;7.40;99.90
46400;DHT22;32104;50.838;4.388;2023-02-05T08:11:25;7.40;99.90
46400;DHT22;32104;50.838;4.388;2023-02-05T08:13:51;7.30;99.90
46400;DHT22;32104;50.838;4.388;2023-02-05T08:16:17;7.30;99.90
46400;DHT22;32104;50.838;4.388;2023-02-05T08:18:48;7.40;99.90
46400;DHT22;32104;50.838;4.388;2023-02-05T08:21:15;7.40;99.90
46400;DHT22;32104;50.838;4.388;2023-02-05T08:23:42;7.40;99.90
46400;DHT22;32104;50.838;4.388;2023-02-05T08:26:08;7.50;99.90
46400;DHT22;32104;50.838;4.388;2023-02-05T08:28:34;7.50;99.90
46400;DHT22;32104;50.838;4.388;2023-02-05T08:31:00;7.60;99.90
46400;DHT22;32104;50.838;4.388;2023-02-05T08:33:26;7.60;99.90
46400;DHT22;32104;50.838;4.388;2023-02-05T08:35:56;7.50;99.90
46400;DHT22;32104;50.838;4.388;2023-02-05T08:38:22;7.50;99.90
46400;DHT22;32104;50.838;4.388;2023-02-05T08:40:51;7.40;99.90
46400;DHT22;32104;50.838;4.388;2023-02-05T08:43:17;7.40;99.90
46400;DHT22;32104;50.838;4.388;2023-02-05T08:45:46;7.40;99.90
46400;DHT22;32104;50.838;4.388;2023-02-05T08:48:16;7.40;99.90
46400;DHT22;32104;50.838;4.388;2023-02-05T08:50:44;7.40;99.90
46400;DHT22;32104;50.838;4.388;2023-02-05T08:53:14;7.40;99.90
46400;DHT22;32104;50.838;4.388;2023-02-05T08:55:40;7.50;99.90
46400;DHT22;32104;50.838;4.388;2023-02-05T08:58:06;7.40;99.90
46400;DHT22;32104;50.838;4.388;2023-02-05T09:00:32;7.40;99.90
46400;DHT22;32104;50.838;4.388;2023-02-05T09:03:02;7.30;99.90
46400;DHT22;32104;50.838;4.388;2023-02-05T09:05:30;7.40;99.90
46400;DHT22;32104;50.838;4.388;2023-02-05T09:07:58;7.50;99.90
46400;DHT22;32104;50.838;4.388;2023-02-05T09:10:29;7.40;99.90
46400;DHT22;32104;50.838;4.388;2023-02-05T09:12:55;7.50;99.90
46400;DHT22;32104;50.838;4.388;2023-02-05T09:15:29;7.40;99.90
46400;DHT22;32104;50.838;4.388;2023-02-05T09:17:55;7.40;99.90
46400;DHT22;32104;50.838;4.388;2023-02-05T09:20:20;7.50;99.90
46400;DHT22;32104;50.838;4.388;2023-02-05T09:22:51;7.50;99.90
46400;DHT22;32104;50.838;4.388;2023-02-05T09:25:21;7.60;99.90
46400;DHT22;32104;50.838;4.388;2023-02-05T09:27:50;7.60;99.90
46400;DHT22;32104;50.838;4.388;2023-02-05T09:30:19;7.60;99.90
46400;DHT22;32104;50.838;4.388;2023-02-05T09:32:45;7.60;99.90
46400;DHT22;32104;50.838;4.388;2023-02-05T09:35:11;7.60;99.90
46400;DHT22;32104;50.838;4.388;2023-02-05T09:37:37;7.40;99.90
46400;DHT22;32104;50.838;4.388;2023-02-05T09:40:04;7.30;99.90
46400;DHT22;32104;50.838;4.388;2023-02-05T09:46:00;7.20;99.90
46400;DHT22;32104;50.838;4.388;2023-02-05T09:48:39;7.30;99.90
46400;DHT22;32104;50.838;4.388;2023-02-05T09:51:11;7.30;99.90
46400;DHT22;32104;50.838;4.388;2023-02-05T09:53:44;7.40;99.90
46400;DHT22;32104;50.838;4.388;2023-02-05T10:09:24;7.60;99.90
46400;DHT22;32104;50.838;4.388;2023-02-05T10:15:03;7.60;99.90
46400;DHT22;32104;50.838;4.388;2023-02-05T10:17:56;7.50;99.90
46400;DHT22;32104;50.838;4.388;2023-02-05T10:26:14;7.50;99.90
46400;DHT22;32104;50.838;4.388;2023-02-05T10:35:06;7.70;99.90
46400;DHT22;32104;50.838;4.388;2023-02-05T10:37:42;7.90;99.90
46400;DHT22;32104;50.838;4.388;2023-02-05T10:40:21;8.00;99.90
46400;DHT22;32104;50.838;4.388;2023-02-05T10:43:23;8.10;99.90
46400;DHT22;32104;50.838;4.388;2023-02-05T10:45:52;8.20;99.90
46400;DHT22;32104;50.838;4.388;2023-02-05T10:51:09;8.20;99.90
46400;DHT22;32104;50.838;4.388;2023-02-05T10:53:41;8.10;99.90
46400;DHT22;32104;50.838;4.388;2023-02-05T10:56:07;8.10;99.90
46400;DHT22;32104;50.838;4.388;2023-02-05T10:58:59;8.20;99.90
46400;DHT22;32104;50.838;4.388;2023-02-05T11:01:31;8.20;99.90
46400;DHT22;32104;50.838;4.388;2023-02-05T11:06:26;8.20;99.90
46400;DHT22;32104;50.838;4.388;2023-02-05T11:08:53;8.20;99.90
46400;DHT22;32104;50.838;4.388;2023-02-05T11:11:24;8.20;99.90
46400;DHT22;32104;50.838;4.388;2023-02-05T11:14:03;8.20;99.90
46400;DHT22;32104;50.838;4.388;2023-02-05T11:16:40;8.20;99.90
46400;DHT22;32104;50.838;4.388;2023-02-05T11:19:21;8.30;99.90
46400;DHT22;32104;50.838;4.388;2023-02-05T11:21:58;8.50;99.90
46400;DHT22;32104;50.838;4.388;2023-02-05T11:24:33;8.60;99.90
46400;DHT22;32104;50.838;4.388;2023-02-05T11:27:26;8.80;99.90
46400;DHT22;32104;50.838;4.388;2023-02-05T11:30:12;8.80;99.90
46400;DHT22;32104;50.838;4.388;2023-02-05T11:32:43;8.70;99.90
46400;DHT22;32104;50.838;4.388;2023-02-05T11:35:19;8.80;99.90
46400;DHT22;32104;50.838;4.388;2023-02-05T11:37:53;8.80;99.90
46400;DHT22;32104;50.838;4.388;2023-02-05T11:40:27;8.70;99.90
46400;DHT22;32104;50.838;4.388;2023-02-05T11:43:18;8.80;99.90
46400;DHT22;32104;50.838;4.388;2023-02-05T11:45:53;8.90;99.90
46400;DHT22;32104;50.838;4.388;2023-02-05T11:51:28;8.80;99.90
46400;DHT22;32104;50.838;4.388;2023-02-05T11:54:02;8.80;99.90
46400;DHT22;32104;50.838;4.388;2023-02-05T11:56:29;8.70;99.90
46400;DHT22;32104;50.838;4.388;2023-02-05T11:59:01;8.60;99.90
46400;DHT22;32104;50.838;4.388;2023-02-05T12:01:32;8.60;99.90
46400;DHT22;32104;50.838;4.388;2023-02-05T12:07:03;8.60;99.90
46400;DHT22;32104;50.838;4.388;2023-02-05T12:09:44;8.60;99.90
46400;DHT22;32104;50.838;4.388;2023-02-05T12:13:19;8.50;99.90
46400;DHT22;32104;50.838;4.388;2023-02-05T12:21:56;8.70;99.90
46400;DHT22;32104;50.838;4.388;2023-02-05T12:25:12;8.80;99.90
46400;DHT22;32104;50.838;4.388;2023-02-05T12:27:54;8.90;99.90
46400;DHT22;32104;50.838;4.388;2023-02-05T12:43:49;9.10;99.90
46400;DHT22;32104;50.838;4.388;2023-02-05T13:02:00;9.40;99.90
46400;DHT22;32104;50.838;4.388;2023-02-05T13:04:48;9.20;99.90
46400;DHT22;32104;50.838;4.388;2023-02-05T13:07:44;9.20;99.90
46400;DHT22;32104;50.838;4.388;2023-02-05T13:10:26;9.00;99.90
46400;DHT22;32104;50.838;4.388;2023-02-05T13:13:03;9.00;99.90
46400;DHT22;32104;50.838;4.388;2023-02-05T13:15:45;9.10;99.90
46400;DHT22;32104;50.838;4.388;2023-02-05T13:18:45;9.10;99.90
46400;DHT22;32104;50.838;4.388;2023-02-05T13:24:31;9.10;99.90
46400;DHT22;32104;50.838;4.388;2023-02-05T13:27:48;9.10;99.90
46400;DHT22;32104;50.838;4.388;2023-02-05T13:30:44;9.20;99.90
46400;DHT22;32104;50.838;4.388;2023-02-05T13:33:29;9.00;99.90
46400;DHT22;32104;50.838;4.388;2023-02-05T13:56:00;9.50;99.90
46400;DHT22;32104;50.838;4.388;2023-02-05T13:58:50;9.30;99.90
46400;DHT22;32104;50.838;4.388;2023-02-05T14:04:25;9.10;99.90
46400;DHT22;32104;50.838;4.388;2023-02-05T14:06:59;9.20;99.90
46400;DHT22;32104;50.838;4.388;2023-02-05T14:09:40;9.20;99.90
46400;DHT22;32104;50.838;4.388;2023-02-05T14:12:10;9.30;99.90
46400;DHT22;32104;50.838;4.388;2023-02-05T14:17:57;9.50;99.90
46400;DHT22;32104;50.838;4.388;2023-02-05T14:23:10;9.60;99.90
46400;DHT22;32104;50.838;4.388;2023-02-05T14:28:41;9.20;99.90
46400;DHT22;32104;50.838;4.388;2023-02-05T14:37:52;9.00;99.90
46400;DHT22;32104;50.838;4.388;2023-02-05T14:40:44;8.90;99.90
46400;DHT22;32104;50.838;4.388;2023-02-05T14:44:36;8.80;99.90
46400;DHT22;32104;50.838;4.388;2023-02-05T14:50:10;8.80;99.90
46400;DHT22;32104;50.838;4.388;2023-02-05T15:00:19;9.00;99.90
46400;DHT22;32104;50.838;4.388;2023-02-05T15:09:03;8.80;99.90
46400;DHT22;32104;50.838;4.388;2023-02-05T15:11:56;8.80;99.90
46400;DHT22;32104;50.838;4.388;2023-02-05T15:14:40;8.90;99.90
46400;DHT22;32104;50.838;4.388;2023-02-05T15:17:46;8.90;99.90
46400;DHT22;32104;50.838;4.388;2023-02-05T15:20:23;8.90;99.90
46400;DHT22;32104;50.838;4.388;2023-02-05T15:22:56;9.00;99.90
46400;DHT22;32104;50.838;4.388;2023-02-05T15:25:54;9.00;99.90
46400;DHT22;32104;50.838;4.388;2023-02-05T15:28:26;8.90;99.90
46400;DHT22;32104;50.838;4.388;2023-02-05T15:31:12;8.80;99.90
46400;DHT22;32104;50.838;4.388;2023-02-05T15:39:51;8.80;99.90
46400;DHT22;32104;50.838;4.388;2023-02-05T15:42:41;8.90;99.90
46400;DHT22;32104;50.838;4.388;2023-02-05T15:45:30;8.90;99.90
46400;DHT22;32104;50.838;4.388;2023-02-05T15:51:01;8.80;99.90
46400;DHT22;32104;50.838;4.388;2023-02-05T15:53:55;8.80;99.90
46400;DHT22;32104;50.838;4.388;2023-02-05T15:56:34;8.70;99.90
46400;DHT22;32104;50.838;4.388;2023-02-05T15:59:51;8.70;99.90
46400;DHT22;32104;50.838;4.388;2023-02-05T16:03:03;8.70;99.90
46400;DHT22;32104;50.838;4.388;2023-02-05T16:05:35;8.80;99.90
46400;DHT22;32104;50.838;4.388;2023-02-05T16:08:22;8.70;99.90
46400;DHT22;32104;50.838;4.388;2023-02-05T16:10:57;8.70;99.90
46400;DHT22;32104;50.838;4.388;2023-02-05T16:13:28;8.60;99.90
46400;DHT22;32104;50.838;4.388;2023-02-05T16:16:08;8.60;99.90
46400;DHT22;32104;50.838;4.388;2023-02-05T16:19:04;8.60;99.90
46400;DHT22;32104;50.838;4.388;2023-02-05T16:24:54;8.40;99.90
46400;DHT22;32104;50.838;4.388;2023-02-05T16:27:44;8.40;99.90
46400;DHT22;32104;50.838;4.388;2023-02-05T16:30:38;8.30;99.90
46400;DHT22;32104;50.838;4.388;2023-02-05T16:33:42;8.30;99.90
46400;DHT22;32104;50.838;4.388;2023-02-05T16:36:21;8.30;99.90
46400;DHT22;32104;50.838;4.388;2023-02-05T16:38:54;8.30;99.90
46400;DHT22;32104;50.838;4.388;2023-02-05T16:41:28;8.20;99.90
46400;DHT22;32104;50.838;4.388;2023-02-05T16:43:57;8.20;99.90
46400;DHT22;32104;50.838;4.388;2023-02-05T16:46:36;8.10;99.90
46400;DHT22;32104;50.838;4.388;2023-02-05T16:52:38;8.10;99.90
46400;DHT22;32104;50.838;4.388;2023-02-05T16:55:47;8.20;99.90
46400;DHT22;32104;50.838;4.388;2023-02-05T16:58:20;8.10;99.90
46400;DHT22;32104;50.838;4.388;2023-02-05T17:01:00;8.20;99.90
46400;DHT22;32104;50.838;4.388;2023-02-05T17:03:40;8.30;99.90
46400;DHT22;32104;50.838;4.388;2023-02-05T17:06:24;8.20;99.90
46400;DHT22;32104;50.838;4.388;2023-02-05T17:08:57;8.20;99.90
46400;DHT22;32104;50.838;4.388;2023-02-05T17:11:41;8.20;99.90
46400;DHT22;32104;50.838;4.388;2023-02-05T17:14:31;8.10;99.90
46400;DHT22;32104;50.838;4.388;2023-02-05T17:17:13;8.00;99.90
46400;DHT22;32104;50.838;4.388;2023-02-05T17:20:02;8.00;99.90
46400;DHT22;32104;50.838;4.388;2023-02-05T17:22:32;7.90;99.90
46400;DHT22;32104;50.838;4.388;2023-02-05T17:25:07;7.90;99.90
46400;DHT22;32104;50.838;4.388;2023-02-05T17:27:41;7.90;99.90
46400;DHT22;32104;50.838;4.388;2023-02-05T17:36:40;7.90;99.90
46400;DHT22;32104;50.838;4.388;2023-02-05T17:39:31;7.80;99.90
46400;DHT22;32104;50.838;4.388;2023-02-05T17:41:58;7.60;99.90
46400;DHT22;32104;50.838;4.388;2023-02-05T17:44:34;7.70;99.90
46400;DHT22;32104;50.838;4.388;2023-02-05T17:47:02;7.80;99.90
46400;DHT22;32104;50.838;4.388;2023-02-05T17:49:34;7.80;99.90
46400;DHT22;32104;50.838;4.388;2023-02-05T17:52:01;7.70;99.90
46400;DHT22;32104;50.838;4.388;2023-02-05T17:54:28;7.60;99.90
46400;DHT22;32104;50.838;4.388;2023-02-05T17:56:55;7.70;99.90
46400;DHT22;32104;50.838;4.388;2023-02-05T17:59:25;7.70;99.90
46400;DHT22;32104;50.838;4.388;2023-02-05T18:01:52;7.60;99.90
46400;DHT22;32104;50.838;4.388;2023-02-05T18:04:21;7.60;99.90
46400;DHT22;32104;50.838;4.388;2023-02-05T18:06:53;7.60;99.90
46400;DHT22;32104;50.838;4.388;2023-02-05T18:09:39;7.50;99.90
46400;DHT22;32104;50.838;4.388;2023-02-05T18:12:05;7.50;99.90
46400;DHT22;32104;50.838;4.388;2023-02-05T18:17:10;7.40;99.90
46400;DHT22;32104;50.838;4.388;2023-02-05T18:19:36;7.50;99.90
46400;DHT22;32104;50.838;4.388;2023-02-05T18:22:02;7.50;99.90
46400;DHT22;32104;50.838;4.388;2023-02-05T18:24:32;7.40;99.90
46400;DHT22;32104;50.838;4.388;2023-02-05T18:27:11;7.40;99.90
46400;DHT22;32104;50.838;4.388;2023-02-05T18:33:26;7.30;99.90
46400;DHT22;32104;50.838;4.388;2023-02-05T18:36:08;7.30;99.90
46400;DHT22;32104;50.838;4.388;2023-02-05T18:38:34;7.20;99.90
46400;DHT22;32104;50.838;4.388;2023-02-05T18:43:36;7.20;99.90
46400;DHT22;32104;50.838;4.388;2023-02-05T18:46:21;7.30;99.90
46400;DHT22;32104;50.838;4.388;2023-02-05T18:48:53;7.20;99.90
46400;DHT22;32104;50.838;4.388;2023-02-05T18:51:24;7.10;99.90
46400;DHT22;32104;50.838;4.388;2023-02-05T18:53:57;6.90;99.90
46400;DHT22;32104;50.838;4.388;2023-02-05T18:56:39;7.10;99.90
46400;DHT22;32104;50.838;4.388;2023-02-05T18:59:26;7.20;99.90
46400;DHT22;32104;50.838;4.388;2023-02-05T19:01:59;7.10;99.90
46400;DHT22;32104;50.838;4.388;2023-02-05T19:04:27;7.10;99.90
46400;DHT22;32104;50.838;4.388;2023-02-05T19:06:58;7.10;99.90
46400;DHT22;32104;50.838;4.388;2023-02-05T19:09:28;7.10;99.90
46400;DHT22;32104;50.838;4.388;2023-02-05T19:12:02;7.10;99.90
46400;DHT22;32104;50.838;4.388;2023-02-05T19:14:56;7.00;99.90
46400;DHT22;32104;50.838;4.388;2023-02-05T19:24:10;7.00;99.90
46400;DHT22;32104;50.838;4.388;2023-02-05T19:27:02;6.90;99.90
46400;DHT22;32104;50.838;4.388;2023-02-05T19:29:32;6.90;99.90
46400;DHT22;32104;50.838;4.388;2023-02-05T19:32:17;7.00;99.90
46400;DHT22;32104;50.838;4.388;2023-02-05T19:34:47;7.00;99.90
46400;DHT22;32104;50.838;4.388;2023-02-05T19:37:25;6.90;99.90
46400;DHT22;32104;50.838;4.388;2023-02-05T19:39:58;6.90;99.90
46400;DHT22;32104;50.838;4.388;2023-02-05T19:42:44;6.90;99.90
46400;DHT22;32104;50.838;4.388;2023-02-05T19:45:35;6.90;99.90
46400;DHT22;32104;50.838;4.388;2023-02-05T19:48:10;6.90;99.90
46400;DHT22;32104;50.838;4.388;2023-02-05T19:50:50;6.90;99.90
46400;DHT22;32104;50.838;4.388;2023-02-05T19:53:28;6.80;99.90
46400;DHT22;32104;50.838;4.388;2023-02-05T19:56:33;7.00;99.90